Alto Paraiso de Goias, Brazil
Current Conditions -  °F | °C
As of 5:00 PM on Monday 20 Oct 2014 (Local Time) from SBBR Reporting Station
Scattered Clouds Scattered Clouds  
Wind Chill: 86°   Ceiling: Unl
Heat Index: 86°   Visibility: 6mi
Dew Point: 52°   Wind: 6mph
Humidity: 31%   Direction: 230°SW
Pressure: 29.94"   Gusts: NA
Location:  14.12°S, 47.52°W
Report Text: SBBR 202000Z 23005KT 9999 FEW040 SCT080 30/11 Q1014
Loading
Personal Weather Stations






























Interactive Weather Map New forecast layout! Learn more

10-Day Weather Forecast

Advertisements
Track Severe Weather on mobile